createdAt,value
2023-04-02T00:00:40.023Z,8.55
2023-04-02T00:05:59.434Z,8.55
2023-04-02T00:16:38.203Z,8.53
2023-04-02T00:21:56.919Z,8.49
2023-04-02T00:32:35.293Z,8.49
2023-04-02T00:37:54.304Z,8.49
2023-04-02T00:48:32.808Z,8.49
2023-04-02T00:53:52.086Z,8.46
2023-04-02T00:59:11.338Z,8.46
2023-04-02T01:04:30.298Z,8.45
2023-04-02T01:15:07.998Z,8.39
2023-04-02T01:20:27.752Z,8.42
2023-04-02T01:31:06.346Z,8.35
2023-04-02T01:36:25.257Z,8.34
2023-04-02T01:41:44.986Z,8.31
2023-04-02T01:47:03.893Z,8.29
2023-04-02T01:57:42.697Z,8.25
2023-04-02T02:03:02.144Z,8.24
2023-04-02T02:13:42.083Z,8.14
2023-04-02T02:19:00.175Z,8.14
2023-04-02T02:29:39.033Z,8.14
2023-04-02T02:34:58.154Z,8.12
2023-04-02T02:40:17.617Z,8.1
2023-04-02T02:50:56.017Z,8.08
2023-04-02T02:56:15.355Z,8.1
2023-04-02T03:06:53.981Z,8.07
2023-04-02T03:12:13.464Z,8.05
2023-04-02T03:17:32.856Z,8.02
2023-04-02T03:22:52.219Z,8.04
2023-04-02T03:33:30.638Z,7.97
2023-04-02T03:38:49.861Z,7.97
2023-04-02T03:49:28.006Z,7.91
2023-04-02T03:54:53.475Z,7.9
2023-04-02T04:00:05.808Z,7.9
2023-04-02T04:05:25.410Z,7.93
2023-04-02T04:16:03.952Z,7.89
2023-04-02T04:21:23.242Z,7.86
2023-04-02T04:32:01.320Z,7.8
2023-04-02T04:37:20.512Z,7.8
2023-04-02T04:47:59.153Z,7.79
2023-04-02T04:53:18.209Z,7.81
2023-04-02T04:58:37.750Z,7.84
2023-04-02T05:03:57.406Z,7.87
2023-04-02T05:14:35.503Z,7.87
2023-04-02T05:19:55.178Z,7.9
2023-04-02T05:30:33.873Z,7.93
2023-04-02T05:35:53.477Z,7.9
2023-04-02T05:41:12.594Z,7.91
2023-04-02T05:46:31.570Z,7.94
2023-04-02T05:57:10.662Z,8.05
2023-04-02T06:02:30.558Z,8.07
2023-04-02T06:13:08.872Z,8.21
2023-04-02T06:18:28.098Z,8.25
2023-04-02T06:23:47.395Z,8.32
2023-04-02T06:29:06.761Z,8.34
2023-04-02T06:39:45.208Z,8.41
2023-04-02T06:45:04.577Z,8.43
2023-04-02T06:55:43.382Z,8.46
2023-04-02T07:01:02.958Z,8.49
2023-04-02T07:06:22.479Z,8.53
2023-04-02T07:12:06.425Z,8.55
2023-04-02T07:17:25.405Z,8.51
2023-04-02T07:28:03.363Z,8.62
2023-04-02T07:33:22.555Z,8.72
2023-04-02T07:38:41.774Z,8.89
2023-04-02T07:44:00.714Z,8.89
2023-04-02T07:49:20.154Z,8.99
2023-04-02T07:54:39.331Z,9.14
2023-04-02T07:59:58.148Z,9.21
2023-04-02T08:10:37.572Z,9.13
2023-04-02T08:15:56.548Z,9.09
2023-04-02T08:26:35.802Z,9.06
2023-04-02T08:37:13.962Z,7.62
2023-04-02T08:42:33.359Z,7.33
2023-04-02T08:53:11.470Z,7.29
2023-04-02T08:58:31.021Z,7.29
2023-04-02T09:09:10.151Z,6.97
2023-04-02T09:14:29.527Z,6.84
2023-04-02T09:19:49.254Z,6.76
2023-04-02T09:30:27.658Z,6.71
2023-04-02T09:35:47.140Z,6.7
2023-04-02T09:46:25.245Z,6.9
2023-04-02T09:51:44.489Z,7.07
2023-04-02T09:57:03.794Z,7.29
2023-04-02T10:02:22.528Z,7.29
2023-04-02T10:07:42.194Z,7.28
2023-04-02T10:13:01.775Z,7.38
2023-04-02T10:18:21.322Z,7.42
2023-04-02T10:28:59.324Z,7.04
2023-04-02T10:34:18.125Z,6.95
2023-04-02T10:44:56.453Z,7.02
2023-04-02T10:50:16.019Z,7.08
2023-04-02T10:55:35.031Z,7.11
2023-04-02T11:00:53.832Z,7.04
2023-04-02T11:11:31.418Z,7.05
2023-04-02T11:16:50.669Z,6.91
2023-04-02T11:27:29.314Z,6.95
2023-04-02T11:32:49.222Z,7.08
2023-04-02T11:38:08.188Z,7.15
2023-04-02T11:43:27.557Z,7.23
2023-04-02T11:48:46.415Z,7.25
2023-04-02T11:54:05.377Z,7.25
2023-04-02T11:59:24.902Z,7.16
2023-04-02T12:10:02.973Z,7.3
2023-04-02T12:15:22.701Z,7.38
2023-04-02T12:20:41.734Z,7.36
2023-04-02T12:26:00.563Z,7.3
2023-04-02T12:36:39.082Z,7.4
2023-04-02T12:41:58.307Z,7.48
2023-04-02T12:52:36.614Z,7.33
2023-04-02T12:57:55.765Z,7.29
2023-04-02T13:08:34.196Z,7.18
2023-04-02T13:13:53.919Z,7.38
2023-04-02T13:19:13.169Z,7.49
2023-04-02T13:24:32.300Z,7.48
2023-04-02T13:35:10.874Z,7.46
2023-04-02T13:40:30.597Z,7.49
2023-04-02T13:51:09.438Z,7.43
2023-04-02T13:56:28.960Z,7.35
2023-04-02T14:01:47.022Z,7.3
2023-04-02T14:07:06.312Z,7.33
2023-04-02T14:12:25.952Z,7.12
2023-04-02T14:17:45.050Z,6.98
2023-04-02T14:23:04.506Z,6.92
2023-04-02T14:33:42.909Z,7.05
2023-04-02T14:39:02.116Z,7.02
2023-04-02T14:44:20.677Z,6.98
2023-04-02T14:49:39.854Z,6.94
2023-04-02T14:54:59.509Z,6.91
2023-04-02T15:00:18.420Z,6.88
2023-04-02T15:05:38.502Z,6.8
2023-04-02T15:16:17.057Z,6.68
2023-04-02T15:21:38.839Z,6.46
2023-04-02T15:26:55.347Z,6.26
2023-04-02T15:32:14.314Z,6.28
2023-04-02T15:37:33.047Z,6.16
2023-04-02T15:42:52.949Z,5.92
2023-04-02T15:48:11.604Z,5.82
2023-04-02T15:58:58.126Z,5.61
2023-04-02T16:04:10.607Z,5.48
2023-04-02T16:25:26.832Z,4.9
2023-04-02T16:36:04.827Z,4.67
2023-04-02T16:41:24.140Z,4.69
2023-04-02T16:52:02.323Z,4.73
2023-04-02T16:57:22.095Z,4.62
2023-04-02T17:02:41.620Z,4.46
2023-04-02T17:08:00.532Z,4.31
2023-04-02T17:18:38.255Z,4.08
2023-04-02T17:23:57.532Z,4.03
2023-04-02T17:34:36.297Z,3.89
2023-04-02T17:39:55.683Z,3.85
2023-04-02T17:45:15.200Z,3.82
2023-04-02T17:50:35.249Z,3.83
2023-04-02T18:01:13.689Z,3.82
2023-04-02T18:06:32.529Z,3.82
2023-04-02T18:17:10.412Z,3.79
2023-04-02T18:22:30.738Z,3.79
2023-04-02T18:27:49.392Z,3.77
2023-04-02T18:33:08.506Z,3.77
2023-04-02T18:38:27.633Z,3.75
2023-04-02T18:43:46.909Z,3.79
2023-04-02T18:49:06.581Z,3.77
2023-04-02T18:59:45.555Z,3.72
2023-04-02T19:05:04.352Z,3.72
2023-04-02T19:10:23.684Z,3.68
2023-04-02T19:15:43.051Z,3.63
2023-04-02T19:21:01.690Z,3.58
2023-04-02T19:26:20.630Z,3.58
2023-04-02T19:31:40.013Z,3.55
2023-04-02T19:42:19.268Z,3.52
2023-04-02T19:47:38.503Z,3.51
2023-04-02T19:52:57.878Z,3.49
2023-04-02T19:58:19.480Z,3.51
2023-04-02T20:03:36.134Z,3.51
2023-04-02T20:08:55.105Z,3.49
2023-04-02T20:14:15.167Z,3.52
2023-04-02T20:24:52.799Z,3.54
2023-04-02T20:30:12.178Z,3.52
2023-04-02T20:40:51.856Z,3.48
2023-04-02T20:46:12.131Z,3.54
2023-04-02T20:51:29.571Z,3.58
2023-04-02T20:56:49.390Z,3.59
2023-04-02T21:07:27.430Z,3.58
2023-04-02T21:12:47.276Z,3.62
2023-04-02T21:23:25.206Z,3.59
2023-04-02T21:28:44.611Z,3.6
2023-04-02T21:34:03.899Z,3.51
2023-04-02T21:39:23.427Z,3.28
2023-04-02T21:50:02.745Z,2.97
2023-04-02T21:55:22.562Z,2.81
2023-04-02T22:06:00.639Z,2.5
2023-04-02T22:11:20.240Z,2.34
2023-04-02T22:16:39.587Z,2.29
2023-04-02T22:21:58.505Z,2.25
2023-04-02T22:32:36.736Z,2.3
2023-04-02T22:37:55.825Z,2.36
2023-04-02T22:48:33.517Z,2.63
2023-04-02T22:53:52.906Z,2.7
2023-04-02T22:59:12.498Z,2.79
2023-04-02T23:09:50.317Z,2.79
2023-04-02T23:15:09.463Z,2.76
2023-04-02T23:25:48.260Z,2.68
2023-04-02T23:31:07.380Z,2.73
2023-04-02T23:36:26.426Z,2.76
2023-04-02T23:41:46.026Z,2.77
2023-04-02T23:52:24.580Z,2.73
2023-04-02T23:57:43.935Z,2.86
